Time;durP1;ratioP1;P1;durP2;ratioP2;P2;SDS_P1;SDS_P2;PMS_P1;PMS_P2;Temp;Humidity;BMP_temperature;BMP_pressure;BME280_temperature;BME280_humidity;BME280_pressure;Samples;Min_cycle;Max_cycle;Signal;HPM_P1;HPM_P2
2021/11/03 00:00:40;;;;;;;5.13;4.63;;;;;;;;;;5125964;27;20170;-65
2021/11/03 00:03:07;;;;;;;5.73;5.17;;;;;;;;;;5100806;27;20202;-65
2021/11/03 00:05:33;;;;;;;5.87;5.00;;;;;;;;;;5100307;28;20220;-64
2021/11/03 00:08:00;;;;;;;7.27;5.10;;;;;;;;;;5101283;27;20217;-61
2021/11/03 00:10:30;;;;;;;6.93;5.27;;;;;;;;;;5110858;27;20202;-62
2021/11/03 00:12:56;;;;;;;5.43;4.87;;;;;;;;;;5100243;27;20186;-65
2021/11/03 00:15:23;;;;;;;6.30;4.27;;;;;;;;;;5096535;28;20709;-63
2021/11/03 00:17:49;;;;;;;5.20;4.50;;;;;;;;;;5092051;27;20236;-65
2021/11/03 00:20:19;;;;;;;5.17;4.67;;;;;;;;;;5090354;28;20376;-64
2021/11/03 00:22:47;;;;;;;6.47;5.03;;;;;;;;;;5073355;28;20204;-64
2021/11/03 00:25:14;;;;;;;4.30;3.90;;;;;;;;;;5103466;28;20260;-64
2021/11/03 00:27:42;;;;;;;5.53;5.03;;;;;;;;;;5115690;27;20577;-64
2021/11/03 00:30:14;;;;;;;4.80;4.30;;;;;;;;;;5100683;27;20171;-64
2021/11/03 00:32:41;;;;;;;5.83;4.57;;;;;;;;;;5107062;27;20175;-64
2021/11/03 00:35:09;;;;;;;5.73;4.60;;;;;;;;;;5121356;27;20207;-64
2021/11/03 00:37:36;;;;;;;5.17;4.67;;;;;;;;;;5103055;27;20179;-64
2021/11/03 00:40:02;;;;;;;5.50;4.93;;;;;;;;;;5104040;27;20173;-64
2021/11/03 00:42:29;;;;;;;6.00;4.50;;;;;;;;;;5096426;27;20205;-64
2021/11/03 00:44:55;;;;;;;6.03;5.43;;;;;;;;;;5102525;27;20210;-64
2021/11/03 00:47:21;;;;;;;5.97;5.10;;;;;;;;;;5092001;28;20177;-65
2021/11/03 00:49:48;;;;;;;4.83;4.30;;;;;;;;;;5117552;27;20220;-65
2021/11/03 00:52:14;;;;;;;6.47;5.20;;;;;;;;;;5106535;27;20170;-65
2021/11/03 00:54:40;;;;;;;5.13;4.63;;;;;;;;;;5110341;27;20261;-65
2021/11/03 00:57:07;;;;;;;5.43;4.93;;;;;;;;;;5125252;27;20180;-65
2021/11/03 00:59:36;;;;;;;5.57;5.03;;;;;;;;;;5121845;27;20487;-65
2021/11/03 01:02:02;;;;;;;5.07;4.57;;;;;;;;;;5098202;27;20188;-65
2021/11/03 01:04:28;;;;;;;5.23;4.73;;;;;;;;;;5106599;27;20631;-62
2021/11/03 01:06:54;;;;;;;5.23;4.70;;;;;;;;;;5101804;27;20586;-64
2021/11/03 01:09:20;;;;;;;6.47;4.90;;;;;;;;;;5111074;27;20171;-64
2021/11/03 01:11:46;;;;;;;4.87;4.40;;;;;;;;;;5092068;27;20590;-65
2021/11/03 01:14:13;;;;;;;5.50;4.97;;;;;;;;;;5122614;27;20182;-65
2021/11/03 01:16:39;;;;;;;5.63;5.13;;;;;;;;;;5097054;28;20199;-65
2021/11/03 01:19:06;;;;;;;6.50;4.63;;;;;;;;;;5095045;27;20181;-65
2021/11/03 01:21:33;;;;;;;5.40;4.90;;;;;;;;;;5121155;27;20711;-64
2021/11/03 01:23:59;;;;;;;5.50;5.00;;;;;;;;;;5118815;27;20702;-63
2021/11/03 01:26:25;;;;;;;5.37;4.63;;;;;;;;;;5125792;27;20198;-65
2021/11/03 01:28:51;;;;;;;7.30;5.10;;;;;;;;;;5120046;27;20167;-64
2021/11/03 01:31:21;;;;;;;5.13;4.57;;;;;;;;;;5096251;27;20732;-65
2021/11/03 01:33:49;;;;;;;5.90;5.03;;;;;;;;;;5092339;28;20171;-65
2021/11/03 01:36:18;;;;;;;4.87;4.37;;;;;;;;;;5104922;27;20313;-64
2021/11/03 01:38:44;;;;;;;5.93;4.73;;;;;;;;;;5104570;27;20186;-62
2021/11/03 01:41:13;;;;;;;4.77;4.23;;;;;;;;;;5119624;27;20608;-64
2021/11/03 01:43:40;;;;;;;5.80;5.13;;;;;;;;;;5095379;27;20581;-64
2021/11/03 01:46:15;;;;;;;5.27;4.77;;;;;;;;;;5105524;27;20668;-65
2021/11/03 01:48:41;;;;;;;5.20;4.70;;;;;;;;;;5097992;27;20189;-65
2021/11/03 01:51:07;;;;;;;5.07;4.57;;;;;;;;;;5110579;27;20571;-64
2021/11/03 01:53:34;;;;;;;5.50;4.30;;;;;;;;;;5099172;27;20299;-64
2021/11/03 01:56:06;;;;;;;5.20;4.33;;;;;;;;;;5095036;27;20174;-64
2021/11/03 01:58:51;;;;;;;4.53;4.13;;;;;;;;;;5101433;27;20234;-65
2021/11/03 02:01:18;;;;;;;5.40;4.60;;;;;;;;;;5092976;28;20238;-65
2021/11/03 02:03:45;;;;;;;5.03;4.23;;;;;;;;;;5123556;27;20603;-63
2021/11/03 02:06:15;;;;;;;5.03;4.63;;;;;;;;;;5118954;27;20176;-65
2021/11/03 02:08:43;;;;;;;5.00;4.50;;;;;;;;;;5108350;27;20219;-64
2021/11/03 02:11:10;;;;;;;4.90;4.40;;;;;;;;;;5099664;27;20196;-65
2021/11/03 02:13:37;;;;;;;4.63;4.07;;;;;;;;;;5108765;28;20171;-65
2021/11/03 02:16:04;;;;;;;4.83;4.30;;;;;;;;;;5080121;27;21968;-63
2021/11/03 02:18:32;;;;;;;4.37;3.97;;;;;;;;;;5124242;27;20656;-63
2021/11/03 02:20:58;;;;;;;5.30;4.80;;;;;;;;;;5115751;27;20221;-62
2021/11/03 02:23:33;;;;;;;4.60;4.20;;;;;;;;;;5090728;28;20555;-65
2021/11/03 02:26:07;;;;;;;4.87;4.10;;;;;;;;;;5090690;28;20707;-65
2021/11/03 02:28:40;;;;;;;5.00;4.50;;;;;;;;;;5113826;28;20171;-65
2021/11/03 02:31:06;;;;;;;4.30;3.90;;;;;;;;;;5094087;28;20175;-64
2021/11/03 02:33:32;;;;;;;4.93;4.43;;;;;;;;;;5121475;27;20174;-65
2021/11/03 02:36:00;;;;;;;4.67;4.27;;;;;;;;;;5109418;28;20227;-63
2021/11/03 02:38:31;;;;;;;4.50;4.07;;;;;;;;;;5125868;28;20183;-65
2021/11/03 02:41:12;;;;;;;4.17;3.73;;;;;;;;;;5109347;28;20278;-62
2021/11/03 02:43:49;;;;;;;4.83;4.20;;;;;;;;;;5120929;28;20652;-63
2021/11/03 02:46:16;;;;;;;4.47;4.07;;;;;;;;;;5098569;28;20175;-64
2021/11/03 02:48:44;;;;;;;4.67;4.27;;;;;;;;;;5112193;28;20430;-63
2021/11/03 02:51:10;;;;;;;5.03;4.53;;;;;;;;;;5116991;27;20179;-63
2021/11/03 02:53:38;;;;;;;5.37;4.57;;;;;;;;;;5124457;28;20472;-65
2021/11/03 02:56:05;;;;;;;4.80;4.23;;;;;;;;;;5123586;28;20223;-64
2021/11/03 02:58:32;;;;;;;4.67;4.27;;;;;;;;;;5113230;27;20625;-62
2021/11/03 03:01:07;;;;;;;5.93;4.00;;;;;;;;;;5102749;27;20281;-63
2021/11/03 03:03:33;;;;;;;4.57;3.90;;;;;;;;;;5123186;27;20400;-63
2021/11/03 03:06:03;;;;;;;4.37;3.97;;;;;;;;;;5117083;27;20189;-62
2021/11/03 03:08:29;;;;;;;5.70;4.57;;;;;;;;;;5123291;27;20664;-62
2021/11/03 03:10:55;;;;;;;5.20;4.37;;;;;;;;;;5127350;27;20189;-62
2021/11/03 03:13:25;;;;;;;4.23;3.83;;;;;;;;;;5117623;27;20178;-62
2021/11/03 03:15:51;;;;;;;5.13;4.63;;;;;;;;;;5115392;27;20255;-64
2021/11/03 03:18:28;;;;;;;5.80;4.20;;;;;;;;;;5112608;27;20214;-65
2021/11/03 03:21:00;;;;;;;4.80;4.30;;;;;;;;;;5098832;27;20310;-64
2021/11/03 03:23:27;;;;;;;4.73;4.27;;;;;;;;;;5096651;28;20564;-65
2021/11/03 03:25:54;;;;;;;4.60;4.20;;;;;;;;;;5100820;27;20194;-62
2021/11/03 03:28:20;;;;;;;4.57;4.17;;;;;;;;;;5102830;27;20186;-62
2021/11/03 03:30:47;;;;;;;4.80;4.30;;;;;;;;;;5095293;27;20184;-65
2021/11/03 03:33:13;;;;;;;4.43;4.03;;;;;;;;;;5098259;27;20190;-62
2021/11/03 03:35:39;;;;;;;5.57;5.03;;;;;;;;;;5117126;27;20538;-63
2021/11/03 03:38:05;;;;;;;5.10;4.17;;;;;;;;;;5096225;27;20193;-63
2021/11/03 03:40:32;;;;;;;4.57;4.17;;;;;;;;;;5084081;27;20252;-63
2021/11/03 03:42:58;;;;;;;4.10;3.67;;;;;;;;;;5117855;27;20206;-61
2021/11/03 03:45:24;;;;;;;4.73;4.30;;;;;;;;;;5116589;27;20187;-63
2021/11/03 03:47:50;;;;;;;5.37;4.10;;;;;;;;;;5116250;27;20894;-62
2021/11/03 03:50:20;;;;;;;4.87;4.07;;;;;;;;;;5115965;27;20183;-63
2021/11/03 03:52:46;;;;;;;4.83;4.17;;;;;;;;;;5092928;27;20337;-63
2021/11/03 03:55:12;;;;;;;4.70;4.30;;;;;;;;;;5096550;27;20194;-62
2021/11/03 03:57:38;;;;;;;6.83;5.03;;;;;;;;;;5115856;27;20645;-63
2021/11/03 04:00:08;;;;;;;4.33;3.80;;;;;;;;;;5108794;27;20534;-63
2021/11/03 04:02:34;;;;;;;4.70;4.00;;;;;;;;;;5098963;28;20218;-63
2021/11/03 04:05:00;;;;;;;4.50;4.10;;;;;;;;;;5098815;27;20181;-63
2021/11/03 04:07:26;;;;;;;4.00;3.60;;;;;;;;;;5113585;27;20214;-62
2021/11/03 04:09:52;;;;;;;4.30;3.70;;;;;;;;;;5093330;27;20179;-63
2021/11/03 04:12:18;;;;;;;6.27;4.17;;;;;;;;;;5121148;27;20189;-63
2021/11/03 04:14:47;;;;;;;5.37;4.47;;;;;;;;;;5130085;27;20186;-63
2021/11/03 04:17:14;;;;;;;5.40;4.67;;;;;;;;;;5122223;27;20183;-65
2021/11/03 04:19:40;;;;;;;4.77;4.27;;;;;;;;;;5121805;27;20178;-61
2021/11/03 04:22:07;;;;;;;4.70;3.80;;;;;;;;;;5094503;28;20697;-63
2021/11/03 04:24:34;;;;;;;4.33;3.93;;;;;;;;;;5096737;28;20179;-63
2021/11/03 04:27:01;;;;;;;5.53;4.77;;;;;;;;;;5101149;27;20502;-63
2021/11/03 04:29:27;;;;;;;6.10;4.00;;;;;;;;;;5102036;27;20665;-63
2021/11/03 04:31:54;;;;;;;4.90;4.50;;;;;;;;;;5114883;27;20289;-63
2021/11/03 04:34:20;;;;;;;6.93;4.83;;;;;;;;;;5116506;27;20587;-63
2021/11/03 04:36:46;;;;;;;4.87;4.27;;;;;;;;;;5102978;27;20262;-61
2021/11/03 04:39:13;;;;;;;4.83;4.07;;;;;;;;;;5117509;27;20633;-63
2021/11/03 04:41:39;;;;;;;4.67;3.77;;;;;;;;;;5121005;27;20741;-63
2021/11/03 04:44:06;;;;;;;4.77;4.37;;;;;;;;;;5123659;27;20187;-63
2021/11/03 04:46:32;;;;;;;4.17;3.77;;;;;;;;;;5124043;27;20235;-63
2021/11/03 04:48:59;;;;;;;5.43;4.90;;;;;;;;;;5093078;27;20558;-63
2021/11/03 04:51:26;;;;;;;4.40;4.00;;;;;;;;;;5103684;27;20175;-62
2021/11/03 04:53:52;;;;;;;8.63;5.00;;;;;;;;;;5118189;27;20505;-63
2021/11/03 04:56:19;;;;;;;5.43;4.33;;;;;;;;;;5118530;27;20171;-63
2021/11/03 04:58:46;;;;;;;5.37;4.67;;;;;;;;;;5105463;27;20732;-63
2021/11/03 05:01:15;;;;;;;6.10;4.57;;;;;;;;;;5104745;27;20185;-61
2021/11/03 05:03:41;;;;;;;5.97;4.57;;;;;;;;;;5108592;27;20198;-63
2021/11/03 05:06:11;;;;;;;5.77;5.13;;;;;;;;;;5101160;27;20175;-61
2021/11/03 05:08:38;;;;;;;4.20;3.80;;;;;;;;;;5121864;27;20202;-62
2021/11/03 05:11:04;;;;;;;5.30;4.50;;;;;;;;;;5121376;27;20555;-62
2021/11/03 05:13:31;;;;;;;4.63;4.13;;;;;;;;;;5097652;27;20650;-62
2021/11/03 05:15:57;;;;;;;4.47;4.07;;;;;;;;;;5093600;27;20722;-63
2021/11/03 05:18:23;;;;;;;4.43;4.03;;;;;;;;;;5099990;28;20195;-63
2021/11/03 05:20:49;;;;;;;5.57;4.43;;;;;;;;;;5114431;27;20246;-62
2021/11/03 05:23:16;;;;;;;5.10;4.60;;;;;;;;;;5094866;27;20287;-64
2021/11/03 05:25:42;;;;;;;4.67;4.20;;;;;;;;;;5092659;27;20209;-64
2021/11/03 05:28:08;;;;;;;6.03;5.13;;;;;;;;;;5099601;27;20182;-64
2021/11/03 05:30:36;;;;;;;8.27;4.67;;;;;;;;;;5113413;27;20175;-64
2021/11/03 05:33:02;;;;;;;5.03;4.47;;;;;;;;;;5121809;27;20178;-63
2021/11/03 05:35:28;;;;;;;7.38;4.63;;;;;;;;;;5114139;27;20830;-62
2021/11/03 05:37:54;;;;;;;4.50;4.07;;;;;;;;;;5124498;27;20179;-64
2021/11/03 05:40:22;;;;;;;7.30;4.37;;;;;;;;;;5100777;27;20175;-63
2021/11/03 05:42:49;;;;;;;5.10;4.23;;;;;;;;;;5091446;28;20190;-63
2021/11/03 05:45:15;;;;;;;4.80;4.30;;;;;;;;;;5098598;27;20179;-64
2021/11/03 05:47:42;;;;;;;5.77;4.20;;;;;;;;;;5098839;28;20178;-64
2021/11/03 05:50:09;;;;;;;3.93;3.63;;;;;;;;;;5111776;27;20178;-62
2021/11/03 05:52:38;;;;;;;4.33;3.90;;;;;;;;;;5091738;27;20197;-63
2021/11/03 05:55:05;;;;;;;4.33;3.47;;;;;;;;;;5096815;27;20483;-62
2021/11/03 05:57:33;;;;;;;4.17;3.77;;;;;;;;;;5111334;27;20183;-63
2021/11/03 06:00:01;;;;;;;4.20;3.80;;;;;;;;;;5090977;27;20187;-63
2021/11/03 06:02:27;;;;;;;4.20;3.57;;;;;;;;;;5089928;27;20203;-60
2021/11/03 06:04:53;;;;;;;3.93;3.53;;;;;;;;;;5110392;27;20223;-63
2021/11/03 06:07:22;;;;;;;4.43;4.03;;;;;;;;;;5127876;27;20741;-62
2021/11/03 06:09:48;;;;;;;4.67;4.20;;;;;;;;;;5128894;27;20174;-62
2021/11/03 06:12:15;;;;;;;4.87;4.03;;;;;;;;;;5127669;27;20702;-63
2021/11/03 06:14:41;;;;;;;5.47;3.70;;;;;;;;;;5114059;27;20170;-63
2021/11/03 06:17:08;;;;;;;4.10;3.70;;;;;;;;;;5127928;27;20189;-62
2021/11/03 06:19:34;;;;;;;4.23;3.83;;;;;;;;;;5089413;28;20179;-62
2021/11/03 06:22:00;;;;;;;3.90;3.60;;;;;;;;;;5114816;27;20226;-62
2021/11/03 06:24:28;;;;;;;3.90;3.57;;;;;;;;;;5126732;27;20162;-63
2021/11/03 06:26:54;;;;;;;4.23;3.70;;;;;;;;;;5120652;27;20666;-61
2021/11/03 06:29:20;;;;;;;4.17;3.77;;;;;;;;;;5110029;28;20166;-62
2021/11/03 06:31:47;;;;;;;4.60;4.13;;;;;;;;;;5104257;28;20509;-61
2021/11/03 06:34:13;;;;;;;4.53;4.00;;;;;;;;;;5107901;28;20740;-61
2021/11/03 06:36:40;;;;;;;3.70;3.30;;;;;;;;;;5099301;28;20194;-62
2021/11/03 06:39:07;;;;;;;4.23;3.83;;;;;;;;;;5123660;28;20209;-62
2021/11/03 06:41:34;;;;;;;4.07;3.67;;;;;;;;;;5104674;28;20576;-62
2021/11/03 06:44:01;;;;;;;4.30;3.90;;;;;;;;;;5118132;28;20163;-62
2021/11/03 06:46:27;;;;;;;3.77;3.33;;;;;;;;;;5087217;28;20174;-62
2021/11/03 06:48:54;;;;;;;4.13;3.73;;;;;;;;;;5090334;28;20168;-63
2021/11/03 06:51:20;;;;;;;4.83;4.00;;;;;;;;;;5095229;28;20656;-63
2021/11/03 06:53:47;;;;;;;4.30;3.90;;;;;;;;;;5128509;28;20353;-63
2021/11/03 06:56:13;;;;;;;4.13;3.73;;;;;;;;;;5098280;28;20565;-62
2021/11/03 06:58:39;;;;;;;4.83;3.73;;;;;;;;;;5129125;28;20284;-62
2021/11/03 07:01:08;;;;;;;4.97;3.80;;;;;;;;;;5130088;27;20178;-60
2021/11/03 07:03:35;;;;;;;4.73;4.17;;;;;;;;;;5128748;28;20732;-62
2021/11/03 07:06:01;;;;;;;5.50;4.20;;;;;;;;;;5127525;28;20250;-63
2021/11/03 07:08:28;;;;;;;4.10;3.70;;;;;;;;;;5094306;28;20167;-63
2021/11/03 07:10:57;;;;;;;4.63;4.10;;;;;;;;;;5117646;28;20166;-62
2021/11/03 07:13:25;;;;;;;4.53;4.07;;;;;;;;;;5100770;28;20682;-63
2021/11/03 07:15:52;;;;;;;4.30;3.90;;;;;;;;;;5099660;28;20178;-63
2021/11/03 07:18:18;;;;;;;5.80;4.03;;;;;;;;;;5109949;28;20534;-62
2021/11/03 07:20:45;;;;;;;4.70;4.10;;;;;;;;;;5121390;28;20217;-62
2021/11/03 07:23:12;;;;;;;5.53;4.80;;;;;;;;;;5122967;28;20201;-62
2021/11/03 07:25:38;;;;;;;4.83;4.23;;;;;;;;;;5106503;28;20671;-62
2021/11/03 07:28:05;;;;;;;4.77;4.10;;;;;;;;;;5127708;28;20625;-62
2021/11/03 07:30:32;;;;;;;5.57;4.30;;;;;;;;;;5128870;28;20234;-62
2021/11/03 07:32:58;;;;;;;5.80;4.53;;;;;;;;;;5127186;28;20582;-63
2021/11/03 07:35:25;;;;;;;5.50;3.87;;;;;;;;;;5099598;28;20232;-61
2021/11/03 07:37:52;;;;;;;4.40;4.00;;;;;;;;;;5099601;28;20182;-62
2021/11/03 07:40:21;;;;;;;4.07;3.53;;;;;;;;;;5113651;28;20232;-61
2021/11/03 07:42:47;;;;;;;5.87;4.07;;;;;;;;;;5102504;28;20236;-62
2021/11/03 07:45:13;;;;;;;4.90;4.33;;;;;;;;;;5114915;27;20265;-62
2021/11/03 07:47:39;;;;;;;5.03;4.10;;;;;;;;;;5129401;27;20175;-61
2021/11/03 07:50:07;;;;;;;4.53;3.70;;;;;;;;;;5113852;27;20182;-60
2021/11/03 07:52:33;;;;;;;5.47;4.70;;;;;;;;;;5124591;27;20178;-61
2021/11/03 07:54:59;;;;;;;5.20;4.70;;;;;;;;;;5117587;27;20704;-63
2021/11/03 07:57:25;;;;;;;4.47;4.07;;;;;;;;;;5129573;27;20198;-62
2021/11/03 07:59:51;;;;;;;6.50;4.40;;;;;;;;;;5112443;27;20174;-63
2021/11/03 08:02:17;;;;;;;8.47;4.63;;;;;;;;;;5106698;27;20718;-62
2021/11/03 08:04:43;;;;;;;4.23;3.83;;;;;;;;;;5130626;27;20178;-62
2021/11/03 08:07:11;;;;;;;5.13;4.03;;;;;;;;;;5124656;27;20197;-62
2021/11/03 08:09:43;;;;;;;4.40;4.00;;;;;;;;;;5112017;28;20786;-63
2021/11/03 08:12:10;;;;;;;6.40;4.77;;;;;;;;;;5123144;27;20186;-63
2021/11/03 08:14:36;;;;;;;4.90;4.40;;;;;;;;;;5130103;27;20179;-62
2021/11/03 08:17:07;;;;;;;5.07;4.07;;;;;;;;;;5131253;27;20665;-63
2021/11/03 08:19:38;;;;;;;4.60;4.03;;;;;;;;;;5115327;27;20641;-63
2021/11/03 08:22:06;;;;;;;5.97;4.27;;;;;;;;;;5129580;27;20712;-63
2021/11/03 08:24:33;;;;;;;4.27;3.87;;;;;;;;;;5095548;27;20547;-63
2021/11/03 08:27:00;;;;;;;5.77;4.47;;;;;;;;;;5090476;28;20202;-63
2021/11/03 08:29:29;;;;;;;5.03;4.53;;;;;;;;;;5093952;27;20645;-61
2021/11/03 08:31:59;;;;;;;6.13;4.43;;;;;;;;;;5130450;27;20175;-62
2021/11/03 08:34:30;;;;;;;5.57;4.70;;;;;;;;;;5126487;27;20178;-63
2021/11/03 08:37:00;;;;;;;4.77;4.23;;;;;;;;;;5101557;27;20266;-63
2021/11/03 08:39:27;;;;;;;4.67;4.23;;;;;;;;;;5092229;27;20178;-63
2021/11/03 08:41:53;;;;;;;4.80;4.30;;;;;;;;;;5101965;28;20576;-63
2021/11/03 08:44:20;;;;;;;4.43;4.03;;;;;;;;;;5126921;27;20179;-63
2021/11/03 08:46:46;;;;;;;5.00;4.50;;;;;;;;;;5107250;27;20594;-63
2021/11/03 08:49:12;;;;;;;7.40;4.57;;;;;;;;;;5106659;28;20236;-64
2021/11/03 08:51:40;;;;;;;4.97;3.90;;;;;;;;;;5110541;27;20178;-61
2021/11/03 08:54:07;;;;;;;5.73;4.20;;;;;;;;;;5106312;28;20198;-63
2021/11/03 08:56:35;;;;;;;6.17;4.50;;;;;;;;;;5118324;27;20171;-64
2021/11/03 08:59:03;;;;;;;5.07;4.57;;;;;;;;;;5117355;27;20269;-61
2021/11/03 09:01:29;;;;;;;5.43;4.67;;;;;;;;;;5106202;27;20174;-64
2021/11/03 09:03:56;;;;;;;6.30;4.57;;;;;;;;;;5118994;27;20241;-63
2021/11/03 09:06:22;;;;;;;6.53;4.87;;;;;;;;;;5121779;27;20187;-61
2021/11/03 09:08:50;;;;;;;6.63;4.47;;;;;;;;;;5112169;27;20667;-64
2021/11/03 09:11:16;;;;;;;6.47;4.47;;;;;;;;;;5096832;27;20182;-64
2021/11/03 09:13:42;;;;;;;6.27;4.20;;;;;;;;;;5114891;27;20530;-63
2021/11/03 09:16:08;;;;;;;5.60;4.93;;;;;;;;;;5095288;27;20182;-64
2021/11/03 09:18:35;;;;;;;6.53;4.77;;;;;;;;;;5113551;27;20182;-64
2021/11/03 09:21:01;;;;;;;6.47;4.80;;;;;;;;;;5092525;27;20218;-64
2021/11/03 09:23:28;;;;;;;5.23;4.60;;;;;;;;;;5110785;28;20199;-62
2021/11/03 09:25:56;;;;;;;7.07;4.90;;;;;;;;;;5113678;27;20190;-64
2021/11/03 09:28:23;;;;;;;6.03;5.40;;;;;;;;;;5121306;27;20284;-64
2021/11/03 09:30:50;;;;;;;6.53;4.67;;;;;;;;;;5128874;27;20383;-62
2021/11/03 09:33:17;;;;;;;7.67;5.73;;;;;;;;;;5100206;27;20211;-64
2021/11/03 09:35:48;;;;;;;6.37;5.43;;;;;;;;;;5116773;27;20261;-64
2021/11/03 09:38:16;;;;;;;10.70;5.10;;;;;;;;;;5111949;27;20182;-64
2021/11/03 09:40:52;;;;;;;6.90;4.77;;;;;;;;;;5110039;27;20297;-62
2021/11/03 09:43:25;;;;;;;6.50;5.27;;;;;;;;;;5110001;27;20187;-63
2021/11/03 09:45:51;;;;;;;7.30;5.20;;;;;;;;;;5129097;27;20169;-64
2021/11/03 09:48:21;;;;;;;6.87;5.47;;;;;;;;;;5094908;28;20604;-63
2021/11/03 09:50:50;;;;;;;5.30;4.80;;;;;;;;;;5104006;27;20178;-63
2021/11/03 09:53:24;;;;;;;7.47;5.47;;;;;;;;;;5110444;27;20171;-64
2021/11/03 09:55:51;;;;;;;7.23;5.73;;;;;;;;;;5120034;27;20174;-61
2021/11/03 09:58:19;;;;;;;6.17;4.63;;;;;;;;;;5110697;27;20565;-64
2021/11/03 10:00:48;;;;;;;6.83;5.70;;;;;;;;;;5091608;28;20301;-65
2021/11/03 10:03:17;;;;;;;6.30;5.37;;;;;;;;;;5107850;27;20217;-64
2021/11/03 10:05:47;;;;;;;7.40;5.37;;;;;;;;;;5129389;27;20175;-64
2021/11/03 10:08:24;;;;;;;6.90;5.50;;;;;;;;;;5127381;27;20201;-64
2021/11/03 10:10:55;;;;;;;6.67;5.90;;;;;;;;;;5097580;27;20641;-64
2021/11/03 10:13:23;;;;;;;6.33;5.73;;;;;;;;;;5128349;27;20500;-65
2021/11/03 10:16:13;;;;;;;6.47;5.70;;;;;;;;;;5113165;27;20506;-64
2021/11/03 10:18:59;;;;;;;7.03;5.83;;;;;;;;;;5115305;27;20680;-65
2021/11/03 10:21:34;;;;;;;8.20;6.37;;;;;;;;;;5118934;27;20234;-66
2021/11/03 10:24:05;;;;;;;8.60;6.13;;;;;;;;;;5097452;28;20177;-65
2021/11/03 10:26:49;;;;;;;8.70;6.93;;;;;;;;;;5109936;27;20206;-65
2021/11/03 10:29:18;;;;;;;11.90;6.97;;;;;;;;;;5125908;27;20174;-65
2021/11/03 10:31:47;;;;;;;8.40;7.43;;;;;;;;;;5127221;27;20175;-65
2021/11/03 10:34:18;;;;;;;8.57;6.60;;;;;;;;;;5120189;28;20186;-62
2021/11/03 10:36:58;;;;;;;8.10;6.97;;;;;;;;;;5118632;28;20538;-65
2021/11/03 10:39:31;;;;;;;9.03;6.63;;;;;;;;;;5099904;28;20189;-64
2021/11/03 10:42:02;;;;;;;8.03;6.53;;;;;;;;;;5104252;28;20240;-65
2021/11/03 10:44:32;;;;;;;7.63;6.63;;;;;;;;;;5123989;28;20174;-65
2021/11/03 10:47:08;;;;;;;8.37;6.20;;;;;;;;;;5103661;28;20677;-64
2021/11/03 10:49:45;;;;;;;8.20;7.30;;;;;;;;;;5100695;28;20649;-65
2021/11/03 10:52:18;;;;;;;8.97;6.90;;;;;;;;;;5120426;28;20178;-66
2021/11/03 10:54:46;;;;;;;9.20;7.33;;;;;;;;;;5104797;28;20653;-65
2021/11/03 10:57:21;;;;;;;8.40;6.73;;;;;;;;;;5097705;28;20178;-66
2021/11/03 10:59:54;;;;;;;8.40;7.47;;;;;;;;;;5095636;28;20274;-66
2021/11/03 11:02:23;;;;;;;11.53;8.20;;;;;;;;;;5111689;28;20683;-60
2021/11/03 11:04:50;;;;;;;8.23;7.20;;;;;;;;;;5091025;28;20833;-63
2021/11/03 11:07:16;;;;;;;10.97;8.27;;;;;;;;;;5123130;28;20185;-65
2021/11/03 11:09:51;;;;;;;14.77;9.10;;;;;;;;;;5126869;28;20680;-64
2021/11/03 11:12:23;;;;;;;14.67;9.20;;;;;;;;;;5094675;28;20673;-64
2021/11/03 11:14:52;;;;;;;15.43;9.03;;;;;;;;;;5104669;28;20716;-64
2021/11/03 11:17:22;;;;;;;12.87;8.73;;;;;;;;;;5111128;28;20186;-64
2021/11/03 11:19:55;;;;;;;11.40;9.57;;;;;;;;;;5096105;28;20201;-64
2021/11/03 11:22:40;;;;;;;14.03;9.43;;;;;;;;;;5113274;27;20784;-64
2021/11/03 11:25:09;;;;;;;12.70;8.67;;;;;;;;;;5128235;27;20692;-64
2021/11/03 11:27:54;;;;;;;11.47;10.07;;;;;;;;;;5131619;27;20633;-64
2021/11/03 11:30:24;;;;;;;12.77;9.60;;;;;;;;;;5111133;27;20620;-65
2021/11/03 11:32:57;;;;;;;17.03;10.20;;;;;;;;;;5112465;27;20269;-64
2021/11/03 11:35:40;;;;;;;12.73;9.33;;;;;;;;;;5114263;27;20660;-64
2021/11/03 11:38:24;;;;;;;12.77;9.30;;;;;;;;;;5104098;27;20637;-64
2021/11/03 11:41:03;;;;;;;12.23;8.37;;;;;;;;;;5105973;27;20178;-64
2021/11/03 11:43:32;;;;;;;13.13;9.30;;;;;;;;;;5100160;27;20567;-64
2021/11/03 11:46:19;;;;;;;14.20;10.10;;;;;;;;;;5104587;27;20176;-64
2021/11/03 11:48:48;;;;;;;12.60;10.03;;;;;;;;;;5092653;28;20706;-64
2021/11/03 11:51:24;;;;;;;14.57;10.43;;;;;;;;;;5107204;27;20268;-64
2021/11/03 11:53:56;;;;;;;13.43;9.90;;;;;;;;;;5127987;27;20187;-64
2021/11/03 11:56:31;;;;;;;14.17;9.87;;;;;;;;;;5106717;27;20178;-64
2021/11/03 11:59:10;;;;;;;15.50;10.00;;;;;;;;;;5110229;27;20273;-64
2021/11/03 12:01:40;;;;;;;13.57;10.60;;;;;;;;;;5112875;27;20666;-64
2021/11/03 12:04:06;;;;;;;16.00;11.20;;;;;;;;;;5132381;27;20636;-65
2021/11/03 12:06:38;;;;;;;13.07;11.00;;;;;;;;;;5131383;27;20166;-65
2021/11/03 12:09:19;;;;;;;13.03;9.90;;;;;;;;;;5114174;27;20696;-65
2021/11/03 12:11:58;;;;;;;15.07;10.50;;;;;;;;;;5120880;27;20359;-64
2021/11/03 12:14:41;;;;;;;14.40;10.87;;;;;;;;;;5093157;28;20172;-64
2021/11/03 12:17:16;;;;;;;14.90;11.07;;;;;;;;;;5109875;27;20173;-64
2021/11/03 12:19:44;;;;;;;16.80;12.07;;;;;;;;;;5110340;27;20588;-64
2021/11/03 12:22:39;;;;;;;14.10;10.57;;;;;;;;;;5124111;27;20207;-64
2021/11/03 12:25:34;;;;;;;14.17;11.80;;;;;;;;;;5107108;27;20281;-64
2021/11/03 12:28:10;;;;;;;15.13;10.23;;;;;;;;;;5101404;27;20175;-64
2021/11/03 12:30:46;;;;;;;16.73;11.27;;;;;;;;;;5107586;27;20245;-63
2021/11/03 12:33:15;;;;;;;14.93;12.50;;;;;;;;;;5130707;27;20303;-63
2021/11/03 12:35:41;;;;;;;17.83;13.13;;;;;;;;;;5109278;28;20205;-63
2021/11/03 12:38:10;;;;;;;15.33;11.37;;;;;;;;;;5127022;27;20188;-63
2021/11/03 12:40:37;;;;;;;19.33;13.03;;;;;;;;;;5116862;27;20193;-63
2021/11/03 12:43:15;;;;;;;17.73;13.03;;;;;;;;;;5110964;27;20225;-63
2021/11/03 12:45:50;;;;;;;20.97;14.50;;;;;;;;;;5106421;27;20183;-63
2021/11/03 12:48:25;;;;;;;19.73;12.93;;;;;;;;;;5093816;27;20174;-63
2021/11/03 12:50:51;;;;;;;14.33;12.30;;;;;;;;;;5122502;27;20252;-63
2021/11/03 12:53:21;;;;;;;20.00;13.77;;;;;;;;;;5093934;28;20215;-63
2021/11/03 12:55:47;;;;;;;17.73;13.40;;;;;;;;;;5103759;27;20230;-62
2021/11/03 12:58:39;;;;;;;19.63;13.70;;;;;;;;;;5131121;27;20178;-62
2021/11/03 13:01:41;;;;;;;20.97;12.63;;;;;;;;;;5113254;27;20187;-62
2021/11/03 13:04:16;;;;;;;22.20;13.27;;;;;;;;;;5014624;28;20189;-63
2021/11/03 13:06:49;;;;;;;16.87;13.73;;;;;;;;;;5101959;27;20633;-62
2021/11/03 13:09:33;;;;;;;15.90;12.73;;;;;;;;;;5127950;27;20194;-62
2021/11/03 13:11:59;;;;;;;16.13;13.13;;;;;;;;;;5121367;27;20232;-62
2021/11/03 13:14:28;;;;;;;18.23;13.70;;;;;;;;;;5092869;27;20556;-62
2021/11/03 13:16:56;;;;;;;19.60;13.70;;;;;;;;;;5115963;27;20186;-62
2021/11/03 13:19:33;;;;;;;18.23;14.23;;;;;;;;;;5112105;27;20476;-62
2021/11/03 13:22:01;;;;;;;18.17;12.73;;;;;;;;;;5094560;28;20964;-62
2021/11/03 13:24:29;;;;;;;16.03;12.37;;;;;;;;;;5093114;27;20203;-62
2021/11/03 13:26:55;;;;;;;17.33;12.67;;;;;;;;;;5115743;27;20251;-62
2021/11/03 13:29:22;;;;;;;16.07;12.03;;;;;;;;;;5100666;27;20301;-62
2021/11/03 13:32:03;;;;;;;17.33;12.70;;;;;;;;;;5091203;27;20239;-62
2021/11/03 13:34:30;;;;;;;15.07;12.30;;;;;;;;;;5093373;28;20171;-59
2021/11/03 13:36:56;;;;;;;18.27;13.53;;;;;;;;;;5113080;27;20183;-59
2021/11/03 13:39:28;;;;;;;17.40;12.90;;;;;;;;;;5095016;28;20642;-60
2021/11/03 13:42:01;;;;;;;16.17;12.47;;;;;;;;;;5122159;27;20175;-59
2021/11/03 13:44:27;;;;;;;19.33;11.93;;;;;;;;;;5107639;27;20175;-59
2021/11/03 13:46:53;;;;;;;14.70;11.90;;;;;;;;;;5124849;27;20174;-59
2021/11/03 13:49:24;;;;;;;21.57;12.37;;;;;;;;;;5095425;28;20571;-59
2021/11/03 13:52:02;;;;;;;15.73;11.50;;;;;;;;;;5100334;27;20230;-59
2021/11/03 13:54:31;;;;;;;16.70;11.10;;;;;;;;;;5105026;27;20185;-60
2021/11/03 13:57:04;;;;;;;16.47;12.20;;;;;;;;;;5100135;27;20178;-60
2021/11/03 13:59:35;;;;;;;13.03;10.70;;;;;;;;;;5093442;27;20167;-59
2021/11/03 14:02:07;;;;;;;13.63;11.63;;;;;;;;;;5112348;27;20537;-59
2021/11/03 14:04:45;;;;;;;13.47;11.67;;;;;;;;;;5096975;27;20226;-60
2021/11/03 14:07:20;;;;;;;13.47;11.13;;;;;;;;;;5094430;27;20207;-58
2021/11/03 14:09:47;;;;;;;12.77;10.50;;;;;;;;;;5113907;27;20544;-58
2021/11/03 14:12:13;;;;;;;14.67;10.60;;;;;;;;;;5099621;27;20660;-59
2021/11/03 14:14:41;;;;;;;13.20;11.13;;;;;;;;;;5090443;27;20178;-60
2021/11/03 14:17:28;;;;;;;15.13;10.80;;;;;;;;;;5095160;27;20175;-58
2021/11/03 14:20:04;;;;;;;13.60;11.53;;;;;;;;;;5092047;28;20207;-59
2021/11/03 14:22:33;;;;;;;13.27;10.73;;;;;;;;;;5106420;27;20238;-58
2021/11/03 14:25:00;;;;;;;13.40;11.20;;;;;;;;;;5108625;27;20175;-59
2021/11/03 14:27:28;;;;;;;13.33;10.57;;;;;;;;;;5085864;28;20598;-58
2021/11/03 14:29:54;;;;;;;13.03;11.47;;;;;;;;;;5090021;28;20181;-58
2021/11/03 14:32:21;;;;;;;12.67;10.93;;;;;;;;;;5089391;28;20582;-59
2021/11/03 14:34:54;;;;;;;16.53;10.60;;;;;;;;;;5086753;28;20181;-60
2021/11/03 14:37:21;;;;;;;15.73;11.37;;;;;;;;;;5090180;28;20181;-59
2021/11/03 14:39:49;;;;;;;11.97;10.60;;;;;;;;;;5089943;28;20178;-58
2021/11/03 14:42:16;;;;;;;12.83;10.57;;;;;;;;;;5107982;28;20684;-59
2021/11/03 14:44:43;;;;;;;13.33;10.57;;;;;;;;;;5102463;28;20606;-60
2021/11/03 14:47:21;;;;;;;13.70;10.30;;;;;;;;;;5107862;27;20170;-58
2021/11/03 14:49:58;;;;;;;12.43;9.73;;;;;;;;;;5103813;27;20620;-59